Zipperlenville, Texas
Current Conditions -  °F | °C
As of 3:35 AM on Saturday 29 Nov 2014 (Local Time) from KT35 Reporting Station
Clear Clear  
Wind Chill: 58°   Ceiling: Unl
Heat Index: 58°   Visibility: 10mi
Dew Point: 55°   Wind: 9mph
Humidity: 87%   Direction: 200°SSW
Pressure: 30.04"   Gusts: NA
Location:  31.0981°N, 96.99°W
Report Text: KT35 290935Z AUTO 20008KT 10SM CLR 15/13 A3004 RMK AO2 T01470126
Loading
Personal Weather Stations






























Interactive Weather Map New forecast layout! Learn more

10-Day Weather Forecast

Advertisements
Track Severe Weather on mobile